createdAt,value
2018-10-17T00:01:10.663Z,73.00
2018-10-17T00:03:42.367Z,73.40
2018-10-17T00:06:14.228Z,73.50
2018-10-17T00:08:45.992Z,74.10
2018-10-17T00:11:17.845Z,74.70
2018-10-17T00:13:49.582Z,74.20
2018-10-17T00:16:21.340Z,74.10
2018-10-17T00:18:53.045Z,74.10
2018-10-17T00:21:24.883Z,74.10
2018-10-17T00:23:56.620Z,74.50
2018-10-17T00:26:28.508Z,74.80
2018-10-17T00:29:00.288Z,74.80
2018-10-17T00:31:31.998Z,75.00
2018-10-17T00:34:03.884Z,75.00
2018-10-17T00:36:35.635Z,74.90
2018-10-17T00:39:10.299Z,75.20
2018-10-17T00:41:42.211Z,75.30
2018-10-17T00:44:13.901Z,76.10
2018-10-17T00:46:45.564Z,76.10
2018-10-17T00:49:17.515Z,73.70
2018-10-17T00:51:49.114Z,72.90
2018-10-17T00:54:20.924Z,73.20
2018-10-17T00:56:52.578Z,73.70
2018-10-17T00:59:24.300Z,73.90
2018-10-17T01:01:55.994Z,74.00
2018-10-17T01:04:27.718Z,74.40
2018-10-17T01:06:59.657Z,76.50
2018-10-17T01:09:31.479Z,76.50
2018-10-17T01:12:03.241Z,75.60
2018-10-17T01:14:34.881Z,77.00
2018-10-17T01:17:06.951Z,76.90
2018-10-17T01:19:38.936Z,77.40
2018-10-17T01:22:10.568Z,75.90
2018-10-17T01:24:42.358Z,75.70
2018-10-17T01:27:14.240Z,75.50
2018-10-17T01:29:46.075Z,76.80
2018-10-17T01:32:17.711Z,77.20
2018-10-17T01:34:49.480Z,78.00
2018-10-17T01:37:21.242Z,77.10
2018-10-17T01:39:53.081Z,76.50
2018-10-17T01:42:24.991Z,76.80
2018-10-17T01:44:56.799Z,78.10
2018-10-17T01:47:28.531Z,78.40
2018-10-17T01:50:00.313Z,78.50
2018-10-17T01:52:31.970Z,78.30
2018-10-17T01:55:03.750Z,78.10
2018-10-17T01:57:35.515Z,78.10
2018-10-17T02:00:07.499Z,78.10
2018-10-17T02:02:39.209Z,78.70
2018-10-17T02:05:11.168Z,78.20
2018-10-17T02:07:42.926Z,78.00
2018-10-17T02:10:14.587Z,77.70
2018-10-17T02:12:46.204Z,77.40
2018-10-17T02:15:18.035Z,77.70
2018-10-17T02:17:49.669Z,77.80
2018-10-17T02:20:21.475Z,78.50
2018-10-17T02:22:53.317Z,78.50
2018-10-17T02:25:25.057Z,77.90
2018-10-17T02:27:56.827Z,77.40
2018-10-17T02:30:28.554Z,77.80
2018-10-17T02:33:00.210Z,77.90
2018-10-17T02:35:32.064Z,78.10
2018-10-17T02:38:03.936Z,78.30
2018-10-17T02:40:35.898Z,77.20
2018-10-17T02:43:07.762Z,77.20
2018-10-17T02:45:39.539Z,77.70
2018-10-17T02:48:11.398Z,78.20
2018-10-17T02:50:43.239Z,78.40
2018-10-17T02:53:15.130Z,77.50
2018-10-17T02:55:46.882Z,76.90
2018-10-17T02:58:18.625Z,78.70
2018-10-17T03:00:50.403Z,78.80
2018-10-17T03:03:22.153Z,79.50
2018-10-17T03:05:53.892Z,79.50
2018-10-17T03:08:25.564Z,78.90
2018-10-17T03:10:57.661Z,77.90
2018-10-17T03:13:29.472Z,77.30
2018-10-17T03:16:01.142Z,77.50
2018-10-17T03:18:33.013Z,77.60
2018-10-17T03:21:04.821Z,78.20
2018-10-17T03:23:36.609Z,79.30
2018-10-17T03:26:08.511Z,79.00
2018-10-17T03:28:40.162Z,79.00
2018-10-17T03:31:12.043Z,78.90
2018-10-17T03:33:43.666Z,78.40
2018-10-17T03:36:15.411Z,79.00
2018-10-17T03:38:47.408Z,78.40
2018-10-17T03:41:19.382Z,78.70
2018-10-17T03:43:51.214Z,79.40
2018-10-17T03:46:22.974Z,80.10
2018-10-17T03:48:54.626Z,81.10
2018-10-17T03:51:26.291Z,82.30
2018-10-17T03:53:58.234Z,82.80
2018-10-17T03:56:30.305Z,83.30
2018-10-17T03:59:02.122Z,82.80
2018-10-17T04:01:33.948Z,82.10
2018-10-17T04:04:05.920Z,81.00
2018-10-17T04:06:37.544Z,79.70
2018-10-17T04:09:10.366Z,79.70
2018-10-17T04:11:42.213Z,79.90
2018-10-17T04:14:13.869Z,80.20
2018-10-17T04:16:45.635Z,80.70
2018-10-17T04:19:17.307Z,80.80
2018-10-17T04:21:49.016Z,80.30
2018-10-17T04:24:20.789Z,80.50
2018-10-17T04:26:52.654Z,80.60
2018-10-17T04:29:24.285Z,80.50
2018-10-17T04:31:56.145Z,80.80
2018-10-17T04:34:27.761Z,81.20
2018-10-17T04:36:59.522Z,81.50
2018-10-17T04:39:31.260Z,82.00
2018-10-17T04:42:02.910Z,82.20
2018-10-17T04:44:34.677Z,82.00
2018-10-17T04:47:06.644Z,81.80
2018-10-17T04:49:38.446Z,80.50
2018-10-17T04:52:10.133Z,79.60
2018-10-17T04:54:42.004Z,79.30
2018-10-17T04:57:13.777Z,78.70
2018-10-17T04:59:45.406Z,78.90
2018-10-17T05:02:17.277Z,79.10
2018-10-17T05:04:49.179Z,79.90
2018-10-17T05:07:21.046Z,79.40
2018-10-17T05:09:52.882Z,79.40
2018-10-17T05:12:24.522Z,79.80
2018-10-17T05:14:56.420Z,80.30
2018-10-17T05:17:28.130Z,80.90
2018-10-17T05:19:59.912Z,81.30
2018-10-17T05:22:31.639Z,81.30
2018-10-17T05:25:03.532Z,81.40
2018-10-17T05:27:35.312Z,81.40
2018-10-17T05:30:07.666Z,81.20
2018-10-17T05:32:39.310Z,81.00
2018-10-17T05:35:11.276Z,81.10
2018-10-17T05:37:43.007Z,81.30
2018-10-17T05:40:14.806Z,81.40
2018-10-17T05:42:46.531Z,81.70
2018-10-17T05:45:18.289Z,81.90
2018-10-17T05:47:49.965Z,81.40
2018-10-17T05:50:21.922Z,81.50
2018-10-17T05:52:53.696Z,80.90
2018-10-17T05:55:25.507Z,80.50
2018-10-17T05:57:57.658Z,80.30
2018-10-17T06:00:29.477Z,79.50
2018-10-17T06:03:01.354Z,79.80
2018-10-17T06:05:32.985Z,80.10
2018-10-17T06:08:05.078Z,81.10
2018-10-17T06:10:36.831Z,81.40
2018-10-17T06:13:08.552Z,80.00
2018-10-17T06:15:40.229Z,79.30
2018-10-17T06:18:11.972Z,79.40
2018-10-17T06:20:43.741Z,79.10
2018-10-17T06:23:15.468Z,79.20
2018-10-17T06:25:47.175Z,79.40
2018-10-17T06:28:18.967Z,80.10
2018-10-17T06:30:50.755Z,80.90
2018-10-17T06:33:22.704Z,81.20
2018-10-17T06:35:54.390Z,81.30
2018-10-17T06:38:26.166Z,81.30
2018-10-17T06:40:58.142Z,81.90
2018-10-17T06:43:29.855Z,82.10
2018-10-17T06:46:01.557Z,82.10
2018-10-17T06:48:33.491Z,82.00
2018-10-17T06:51:05.394Z,82.00
2018-10-17T06:53:37.146Z,82.40
2018-10-17T06:56:09.320Z,82.20
2018-10-17T06:58:40.960Z,81.90
2018-10-17T07:01:12.912Z,83.20
2018-10-17T07:03:44.766Z,81.80
2018-10-17T07:06:16.491Z,81.50
2018-10-17T07:08:49.207Z,80.30
2018-10-17T07:11:21.114Z,79.60
2018-10-17T07:13:52.934Z,79.90
2018-10-17T07:16:25.081Z,78.70
2018-10-17T07:18:56.885Z,77.90
2018-10-17T07:21:28.749Z,77.20
2018-10-17T07:24:00.494Z,76.80
2018-10-17T07:26:32.208Z,76.20
2018-10-17T07:29:04.041Z,75.10
2018-10-17T07:31:35.776Z,74.70
2018-10-17T07:34:07.713Z,73.90
2018-10-17T07:36:39.573Z,73.20
2018-10-17T07:39:11.663Z,73.60
2018-10-17T07:41:43.313Z,72.90
2018-10-17T07:44:15.162Z,72.70
2018-10-17T07:46:46.932Z,72.90
2018-10-17T07:49:18.577Z,73.00
2018-10-17T07:51:50.439Z,72.70
2018-10-17T07:54:22.228Z,72.40
2018-10-17T07:56:53.961Z,72.10
2018-10-17T07:59:25.734Z,71.60
2018-10-17T08:01:57.582Z,71.30
2018-10-17T08:04:29.360Z,70.90
2018-10-17T08:07:01.129Z,71.00
2018-10-17T08:09:32.945Z,70.90
2018-10-17T08:12:04.926Z,70.60
2018-10-17T08:14:36.903Z,69.90
2018-10-17T08:17:08.661Z,69.50
2018-10-17T08:19:40.329Z,68.90
2018-10-17T08:22:12.083Z,68.10
2018-10-17T08:24:43.849Z,67.50
2018-10-17T08:27:15.805Z,67.20
2018-10-17T08:29:47.638Z,67.10
2018-10-17T08:32:19.537Z,66.90
2018-10-17T08:34:51.170Z,65.90
2018-10-17T08:37:23.339Z,65.10
2018-10-17T08:39:54.882Z,64.20
2018-10-17T08:42:26.647Z,63.70
2018-10-17T08:44:58.334Z,63.00
2018-10-17T08:47:30.470Z,62.80
2018-10-17T08:50:02.274Z,62.40
2018-10-17T08:52:34.118Z,61.10
2018-10-17T08:55:06.294Z,59.90
2018-10-17T08:57:38.191Z,59.40
2018-10-17T09:00:10.484Z,58.20
2018-10-17T09:02:42.447Z,57.70
2018-10-17T09:05:14.286Z,57.20
2018-10-17T09:07:46.245Z,57.30
2018-10-17T09:10:18.046Z,56.90
2018-10-17T09:12:49.796Z,56.60
2018-10-17T09:15:21.689Z,56.40
2018-10-17T09:17:53.467Z,56.10
2018-10-17T09:20:25.415Z,55.80
2018-10-17T09:22:57.171Z,55.10
2018-10-17T09:25:28.823Z,54.70
2018-10-17T09:28:00.648Z,53.70
2018-10-17T09:30:32.470Z,53.40
2018-10-17T09:33:04.207Z,51.70
2018-10-17T09:35:35.984Z,49.40
2018-10-17T09:38:07.929Z,46.50
2018-10-17T09:40:39.561Z,45.30
2018-10-17T09:43:11.393Z,45.80
2018-10-17T09:45:43.186Z,45.70
2018-10-17T09:48:14.947Z,45.90
2018-10-17T09:50:46.604Z,45.10
2018-10-17T09:53:18.392Z,43.50
2018-10-17T09:55:50.127Z,42.50
2018-10-17T09:58:21.787Z,42.50
2018-10-17T10:00:58.479Z,43.80
2018-10-17T10:03:30.317Z,44.90
2018-10-17T10:06:02.031Z,44.70
2018-10-17T10:08:33.729Z,45.40
2018-10-17T10:11:05.684Z,45.10
2018-10-17T10:13:37.463Z,43.20
2018-10-17T10:16:09.146Z,43.80
2018-10-17T10:18:41.073Z,43.50
2018-10-17T10:21:12.951Z,43.70
2018-10-17T10:23:44.903Z,42.50
2018-10-17T10:26:16.555Z,41.70
2018-10-17T10:28:48.254Z,40.80
2018-10-17T10:31:19.968Z,39.00
2018-10-17T10:33:51.903Z,38.20
2018-10-17T10:36:23.884Z,37.30
2018-10-17T10:38:55.771Z,36.50
2018-10-17T10:41:27.533Z,35.50
2018-10-17T10:43:59.219Z,35.50
2018-10-17T10:46:31.033Z,35.30
2018-10-17T10:49:02.822Z,33.90
2018-10-17T10:51:34.885Z,33.30
2018-10-17T10:54:06.667Z,34.00
2018-10-17T10:56:38.495Z,34.00
2018-10-17T10:59:10.319Z,34.00
2018-10-17T11:01:42.122Z,35.20
2018-10-17T11:04:13.761Z,33.20
2018-10-17T11:06:45.721Z,31.70
2018-10-17T11:09:17.375Z,33.30
2018-10-17T11:11:49.108Z,33.90
2018-10-17T11:14:20.948Z,33.80
2018-10-17T11:16:52.778Z,33.30
2018-10-17T11:19:24.518Z,33.50
2018-10-17T11:21:56.415Z,33.20
2018-10-17T11:24:28.316Z,32.00
2018-10-17T11:27:00.277Z,30.80
2018-10-17T11:29:32.066Z,30.30
2018-10-17T11:32:03.884Z,30.00
2018-10-17T11:34:35.582Z,29.20
2018-10-17T11:37:07.538Z,28.70
2018-10-17T11:39:39.286Z,28.30
2018-10-17T11:42:11.146Z,27.80
2018-10-17T11:44:42.819Z,27.60
2018-10-17T11:47:14.626Z,28.00
2018-10-17T11:49:46.562Z,28.20
2018-10-17T11:52:18.280Z,28.70
2018-10-17T11:54:49.972Z,29.60
2018-10-17T11:57:21.710Z,29.10
2018-10-17T11:59:53.356Z,29.30
2018-10-17T12:02:25.230Z,29.80
2018-10-17T12:04:57.188Z,30.80
2018-10-17T12:07:28.852Z,31.50
2018-10-17T12:10:00.626Z,32.30
2018-10-17T12:12:32.360Z,32.00
2018-10-17T12:15:04.104Z,33.20
2018-10-17T12:17:35.870Z,33.70
2018-10-17T12:20:10.158Z,34.00
2018-10-17T12:22:42.768Z,34.90
2018-10-17T12:25:15.110Z,35.60
2018-10-17T12:27:47.073Z,35.60
2018-10-17T12:30:18.888Z,34.90
2018-10-17T12:32:50.647Z,33.90
2018-10-17T12:35:22.372Z,33.00
2018-10-17T12:37:54.257Z,32.50
2018-10-17T12:40:26.082Z,32.00
2018-10-17T12:42:57.896Z,31.40
2018-10-17T12:45:29.638Z,30.70
2018-10-17T12:48:01.520Z,29.90
2018-10-17T12:50:33.162Z,29.30
2018-10-17T12:53:05.215Z,28.60
2018-10-17T12:55:36.835Z,27.70
2018-10-17T12:58:08.745Z,26.90
2018-10-17T13:00:40.657Z,26.50
2018-10-17T13:03:12.359Z,26.30
2018-10-17T13:05:44.125Z,25.90
2018-10-17T13:08:16.012Z,25.50
2018-10-17T13:10:47.737Z,25.50
2018-10-17T13:13:19.398Z,25.60
2018-10-17T13:15:51.265Z,25.80
2018-10-17T13:18:23.010Z,26.40
2018-10-17T13:20:54.678Z,26.10
2018-10-17T13:23:26.434Z,25.80
2018-10-17T13:25:58.082Z,25.70
2018-10-17T13:28:30.106Z,26.00
2018-10-17T13:31:02.052Z,26.10
2018-10-17T13:33:34.010Z,25.70
2018-10-17T13:36:05.818Z,25.50
2018-10-17T13:38:37.634Z,25.80
2018-10-17T13:41:09.701Z,25.90
2018-10-17T13:43:41.320Z,25.90
2018-10-17T13:46:12.990Z,26.10
2018-10-17T13:48:44.925Z,26.40
2018-10-17T13:51:16.621Z,26.70
2018-10-17T13:53:48.368Z,26.80
2018-10-17T13:56:20.040Z,28.00
2018-10-17T13:58:51.897Z,27.70
2018-10-17T14:01:23.975Z,28.10
2018-10-17T14:03:55.829Z,28.30
2018-10-17T14:06:27.752Z,28.30
2018-10-17T14:08:59.763Z,28.80
2018-10-17T14:11:31.551Z,29.30
2018-10-17T14:14:03.252Z,29.60
2018-10-17T14:16:35.030Z,30.30
2018-10-17T14:19:06.811Z,30.90
2018-10-17T14:21:38.636Z,32.20
2018-10-17T14:24:10.532Z,32.60
2018-10-17T14:26:42.274Z,33.90
2018-10-17T14:29:13.952Z,35.40
2018-10-17T14:31:45.861Z,36.40
2018-10-17T14:34:17.521Z,37.10
2018-10-17T14:36:49.320Z,38.10
2018-10-17T14:39:21.438Z,38.60
2018-10-17T14:41:53.030Z,39.80
2018-10-17T14:44:24.754Z,40.40
2018-10-17T14:46:56.426Z,40.80
2018-10-17T14:49:28.294Z,41.60
2018-10-17T14:51:59.941Z,42.00
2018-10-17T14:54:31.713Z,42.40
2018-10-17T14:57:03.635Z,42.80
2018-10-17T14:59:35.449Z,42.90
2018-10-17T15:02:07.718Z,43.20
2018-10-17T15:04:39.457Z,43.50
2018-10-17T15:07:11.369Z,43.50
2018-10-17T15:09:43.254Z,43.70
2018-10-17T15:12:14.999Z,43.80
2018-10-17T15:14:46.785Z,44.30
2018-10-17T15:17:18.562Z,44.60
2018-10-17T15:19:50.290Z,45.30
2018-10-17T15:22:22.195Z,45.00
2018-10-17T15:24:53.823Z,45.40
2018-10-17T15:27:25.579Z,45.80
2018-10-17T15:29:57.395Z,45.80
2018-10-17T15:32:29.230Z,46.80
2018-10-17T15:35:00.970Z,47.60
2018-10-17T15:37:32.815Z,47.60
2018-10-17T15:40:04.814Z,47.80
2018-10-17T15:42:36.641Z,48.10
2018-10-17T15:45:08.784Z,48.50
2018-10-17T15:47:40.592Z,49.30
2018-10-17T15:50:12.433Z,49.90
2018-10-17T15:52:44.223Z,50.50
2018-10-17T15:55:15.949Z,51.10
2018-10-17T15:57:47.635Z,52.40
2018-10-17T16:00:19.729Z,52.40
2018-10-17T16:02:51.418Z,53.60
2018-10-17T16:05:23.292Z,53.50
2018-10-17T16:07:55.013Z,53.70
2018-10-17T16:10:26.832Z,53.90
2018-10-17T16:13:04.378Z,54.20
2018-10-17T16:15:58.365Z,54.70
2018-10-17T16:21:52.502Z,55.20
2018-10-17T16:24:53.467Z,55.30
2018-10-17T16:27:25.297Z,55.50
2018-10-17T16:29:57.092Z,55.90
2018-10-17T16:32:28.950Z,56.10
2018-10-17T16:35:00.786Z,56.40
2018-10-17T16:37:32.562Z,56.50
2018-10-17T16:40:04.355Z,56.60
2018-10-17T16:42:36.169Z,56.70
2018-10-17T16:45:09.564Z,57.00
2018-10-17T16:47:41.724Z,57.10
2018-10-17T16:50:13.670Z,57.30
2018-10-17T16:52:45.456Z,57.50
2018-10-17T16:55:17.319Z,57.60
2018-10-17T16:57:49.060Z,58.10
2018-10-17T17:00:20.937Z,58.50
2018-10-17T17:02:52.708Z,58.60
2018-10-17T17:05:24.475Z,58.70
2018-10-17T17:07:56.223Z,58.90
2018-10-17T17:10:28.081Z,59.70
2018-10-17T17:12:59.932Z,59.30
2018-10-17T17:15:31.603Z,59.40
2018-10-17T17:18:03.329Z,59.60
2018-10-17T17:20:34.923Z,59.90
2018-10-17T17:23:06.871Z,60.20
2018-10-17T17:25:38.545Z,61.10
2018-10-17T17:28:10.494Z,60.70
2018-10-17T17:30:42.373Z,61.10
2018-10-17T17:33:14.283Z,61.40
2018-10-17T17:35:46.987Z,61.50
2018-10-17T17:38:18.858Z,61.90
2018-10-17T17:40:50.639Z,61.90
2018-10-17T17:43:22.278Z,61.70
2018-10-17T17:45:54.029Z,62.50
2018-10-17T17:48:25.806Z,63.40
2018-10-17T17:50:57.469Z,63.50
2018-10-17T17:53:29.231Z,63.40
2018-10-17T17:56:00.988Z,63.60
2018-10-17T17:58:32.670Z,64.40
2018-10-17T18:01:04.310Z,65.40
2018-10-17T18:03:36.052Z,64.20
2018-10-17T18:06:07.995Z,64.30
2018-10-17T18:08:39.663Z,64.70
2018-10-17T18:11:21.581Z,64.90
2018-10-17T18:13:54.362Z,65.20
2018-10-17T18:16:26.190Z,65.40
2018-10-17T18:18:57.857Z,65.50
2018-10-17T18:21:29.535Z,65.30
2018-10-17T18:24:01.395Z,65.40
2018-10-17T18:26:33.141Z,66.20
2018-10-17T18:29:04.868Z,65.50
2018-10-17T18:31:36.595Z,65.60
2018-10-17T18:34:08.543Z,65.80
2018-10-17T18:36:40.374Z,66.40
2018-10-17T18:39:12.035Z,66.60
2018-10-17T18:41:43.693Z,67.10
2018-10-17T18:44:15.467Z,67.60
2018-10-17T18:46:47.212Z,67.70
2018-10-17T18:49:45.505Z,68.10
2018-10-17T18:52:31.176Z,68.20
2018-10-17T18:55:18.117Z,68.40
2018-10-17T18:58:02.179Z,67.30
2018-10-17T19:00:50.516Z,67.10
2018-10-17T19:03:35.873Z,68.20
2018-10-17T19:06:16.381Z,69.60
2018-10-17T19:08:48.409Z,69.80
2018-10-17T19:11:20.047Z,69.60
2018-10-17T19:13:51.895Z,68.80
2018-10-17T19:16:23.615Z,68.40
2018-10-17T19:18:55.636Z,67.90
2018-10-17T19:21:27.408Z,67.60
2018-10-17T19:24:23.700Z,67.90
2018-10-17T19:27:23.459Z,68.00
2018-10-17T19:30:02.663Z,68.00
2018-10-17T19:32:57.455Z,68.00
2018-10-17T19:35:45.849Z,68.50
2018-10-17T19:38:23.664Z,68.50
2018-10-17T19:41:10.464Z,69.00
2018-10-17T19:43:58.470Z,68.90
2018-10-17T19:46:52.735Z,68.00
2018-10-17T19:49:47.410Z,67.80
2018-10-17T19:52:41.495Z,68.20
2018-10-17T19:55:31.017Z,68.80
2018-10-17T19:58:23.276Z,69.20
2018-10-17T20:01:08.761Z,69.40
2018-10-17T20:04:00.365Z,69.70
2018-10-17T20:06:51.977Z,70.00
2018-10-17T20:09:36.752Z,70.40
2018-10-17T20:12:23.357Z,70.60
2018-10-17T20:15:02.878Z,70.50
2018-10-17T20:17:46.305Z,70.20
2018-10-17T20:20:23.403Z,69.60
2018-10-17T20:23:03.273Z,69.60
2018-10-17T20:25:43.044Z,69.80
2018-10-17T20:28:33.789Z,71.20
2018-10-17T20:31:12.889Z,71.00
2018-10-17T20:33:44.762Z,70.40
2018-10-17T20:36:16.611Z,70.60
2018-10-17T20:38:48.337Z,71.00
2018-10-17T20:41:20.379Z,71.10
2018-10-17T20:43:52.214Z,71.20
2018-10-17T20:46:24.091Z,71.30
2018-10-17T20:48:57.719Z,71.80
2018-10-17T20:51:29.464Z,72.40
2018-10-17T20:54:01.146Z,73.20
2018-10-17T20:56:32.778Z,74.00
2018-10-17T20:59:04.671Z,73.90
2018-10-17T21:01:36.338Z,73.40
2018-10-17T21:04:08.283Z,73.40
2018-10-17T21:06:40.208Z,73.40
2018-10-17T21:09:14.395Z,73.30
2018-10-17T21:11:46.431Z,73.20
2018-10-17T21:14:18.072Z,73.70
2018-10-17T21:16:49.824Z,74.40
2018-10-17T21:19:21.710Z,74.80
2018-10-17T21:21:53.568Z,75.10
2018-10-17T21:24:25.232Z,75.00
2018-10-17T21:26:57.147Z,74.70
2018-10-17T21:29:29.164Z,74.20
2018-10-17T21:32:00.946Z,74.10
2018-10-17T21:34:32.747Z,73.70
2018-10-17T21:37:04.532Z,75.00
2018-10-17T21:39:36.071Z,75.90
2018-10-17T21:42:08.031Z,76.40
2018-10-17T21:44:39.698Z,76.30
2018-10-17T21:47:11.461Z,76.00
2018-10-17T21:49:43.429Z,75.80
2018-10-17T21:52:15.072Z,75.50
2018-10-17T21:54:46.831Z,75.30
2018-10-17T21:57:18.486Z,75.30
2018-10-17T21:59:50.255Z,75.50
2018-10-17T22:02:22.000Z,75.80
2018-10-17T22:04:53.796Z,76.00
2018-10-17T22:07:25.639Z,76.10
2018-10-17T22:09:57.421Z,75.80
2018-10-17T22:12:29.037Z,76.10
2018-10-17T22:15:00.597Z,75.90
2018-10-17T22:17:32.457Z,75.70
2018-10-17T22:20:04.344Z,75.50
2018-10-17T22:22:36.089Z,74.80
2018-10-17T22:25:08.551Z,74.20
2018-10-17T22:27:40.399Z,74.20
2018-10-17T22:30:12.370Z,74.50
2018-10-17T22:32:44.035Z,75.00
2018-10-17T22:35:15.594Z,75.50
2018-10-17T22:37:47.496Z,75.10
2018-10-17T22:40:19.211Z,75.20
2018-10-17T22:42:50.957Z,75.10
2018-10-17T22:45:22.723Z,75.60
2018-10-17T22:47:54.558Z,76.10
2018-10-17T22:50:26.243Z,76.40
2018-10-17T22:52:58.102Z,76.80
2018-10-17T22:55:29.819Z,77.00
2018-10-17T22:58:01.425Z,77.40
2018-10-17T23:00:33.264Z,77.70
2018-10-17T23:03:04.971Z,78.70
2018-10-17T23:05:36.734Z,77.80
2018-10-17T23:08:08.798Z,77.80
2018-10-17T23:10:40.508Z,78.10
2018-10-17T23:13:12.182Z,78.20
2018-10-17T23:15:43.827Z,77.40
2018-10-17T23:18:15.494Z,77.00
2018-10-17T23:20:47.365Z,77.10
2018-10-17T23:23:19.125Z,77.10
2018-10-17T23:25:50.774Z,77.20
2018-10-17T23:28:22.643Z,77.40
2018-10-17T23:30:54.403Z,77.00
2018-10-17T23:33:26.142Z,75.60
2018-10-17T23:35:58.022Z,75.60
2018-10-17T23:38:29.664Z,75.70
2018-10-17T23:41:01.437Z,75.90
2018-10-17T23:43:33.194Z,76.60
2018-10-17T23:46:04.983Z,77.00
2018-10-17T23:48:37.034Z,77.10
2018-10-17T23:51:08.951Z,77.80
2018-10-17T23:53:40.744Z,77.80
2018-10-17T23:56:12.501Z,79.00
2018-10-17T23:58:44.231Z,79.80
